sensor_id;sensor_type;location;lat;lon;timestamp;P1;durP1;ratioP1;P2;durP2;ratioP2
66707;SDS011;53622;0.000;0.000;2023-12-07T00:00:33;2.78;;;1.38;;
66707;SDS011;53622;0.000;0.000;2023-12-07T00:03:02;1.27;;;1.10;;
66707;SDS011;53622;0.000;0.000;2023-12-07T00:05:34;1.05;;;1.05;;
66707;SDS011;53622;0.000;0.000;2023-12-07T00:08:04;2.28;;;1.50;;
66707;SDS011;53622;0.000;0.000;2023-12-07T00:10:32;1.30;;;1.20;;
66707;SDS011;53622;0.000;0.000;2023-12-07T00:13:01;1.38;;;1.27;;
66707;SDS011;53622;0.000;0.000;2023-12-07T00:15:30;1.52;;;1.38;;
66707;SDS011;53622;0.000;0.000;2023-12-07T00:17:59;1.42;;;1.33;;
66707;SDS011;53622;0.000;0.000;2023-12-07T00:20:30;1.63;;;1.50;;
66707;SDS011;53622;0.000;0.000;2023-12-07T00:22:58;1.50;;;1.40;;
66707;SDS011;53622;0.000;0.000;2023-12-07T00:25:28;1.60;;;1.30;;
66707;SDS011;53622;0.000;0.000;2023-12-07T00:27:57;1.50;;;1.40;;
66707;SDS011;53622;0.000;0.000;2023-12-07T00:30:26;1.40;;;1.30;;
66707;SDS011;53622;0.000;0.000;2023-12-07T00:32:55;1.40;;;1.15;;
66707;SDS011;53622;0.000;0.000;2023-12-07T00:35:24;1.48;;;1.30;;
66707;SDS011;53622;0.000;0.000;2023-12-07T00:37:56;1.77;;;1.38;;
66707;SDS011;53622;0.000;0.000;2023-12-07T00:40:24;1.40;;;1.30;;
66707;SDS011;53622;0.000;0.000;2023-12-07T00:42:55;1.40;;;1.25;;
66707;SDS011;53622;0.000;0.000;2023-12-07T00:45:23;1.27;;;1.10;;
66707;SDS011;53622;0.000;0.000;2023-12-07T00:47:52;1.38;;;1.27;;
66707;SDS011;53622;0.000;0.000;2023-12-07T00:50:21;1.40;;;1.30;;
66707;SDS011;53622;0.000;0.000;2023-12-07T00:52:49;1.30;;;1.20;;
66707;SDS011;53622;0.000;0.000;2023-12-07T00:55:18;1.40;;;1.30;;
66707;SDS011;53622;0.000;0.000;2023-12-07T00:57:47;1.40;;;1.30;;
66707;SDS011;53622;0.000;0.000;2023-12-07T01:00:17;1.40;;;1.30;;
66707;SDS011;53622;0.000;0.000;2023-12-07T01:02:46;1.85;;;1.30;;
66707;SDS011;53622;0.000;0.000;2023-12-07T01:05:15;1.52;;;1.23;;
66707;SDS011;53622;0.000;0.000;2023-12-07T01:07:44;1.20;;;1.10;;
66707;SDS011;53622;0.000;0.000;2023-12-07T01:10:13;1.30;;;1.20;;
66707;SDS011;53622;0.000;0.000;2023-12-07T01:12:42;1.40;;;1.30;;
66707;SDS011;53622;0.000;0.000;2023-12-07T01:15:10;1.50;;;1.40;;
66707;SDS011;53622;0.000;0.000;2023-12-07T01:17:40;1.95;;;1.60;;
66707;SDS011;53622;0.000;0.000;2023-12-07T01:20:10;1.30;;;1.20;;
66707;SDS011;53622;0.000;0.000;2023-12-07T01:22:39;1.50;;;1.40;;
66707;SDS011;53622;0.000;0.000;2023-12-07T01:25:08;1.55;;;1.40;;
66707;SDS011;53622;0.000;0.000;2023-12-07T01:27:37;1.48;;;1.38;;
66707;SDS011;53622;0.000;0.000;2023-12-07T01:30:06;1.48;;;1.38;;
66707;SDS011;53622;0.000;0.000;2023-12-07T01:32:36;1.38;;;1.27;;
66707;SDS011;53622;0.000;0.000;2023-12-07T01:35:07;1.40;;;1.30;;
66707;SDS011;53622;0.000;0.000;2023-12-07T01:37:36;1.55;;;1.45;;
66707;SDS011;53622;0.000;0.000;2023-12-07T01:40:05;2.92;;;1.70;;
66707;SDS011;53622;0.000;0.000;2023-12-07T01:42:38;1.40;;;1.30;;
66707;SDS011;53622;0.000;0.000;2023-12-07T01:45:07;2.10;;;1.48;;
66707;SDS011;53622;0.000;0.000;2023-12-07T01:47:36;1.40;;;1.30;;
66707;SDS011;53622;0.000;0.000;2023-12-07T01:50:07;1.48;;;1.38;;
66707;SDS011;53622;0.000;0.000;2023-12-07T01:52:38;2.00;;;1.50;;
66707;SDS011;53622;0.000;0.000;2023-12-07T01:55:11;1.40;;;1.30;;
66707;SDS011;53622;0.000;0.000;2023-12-07T01:57:41;1.60;;;1.50;;
66707;SDS011;53622;0.000;0.000;2023-12-07T02:00:10;1.73;;;1.52;;
66707;SDS011;53622;0.000;0.000;2023-12-07T02:02:40;2.10;;;1.63;;
66707;SDS011;53622;0.000;0.000;2023-12-07T02:05:10;1.85;;;1.70;;
66707;SDS011;53622;0.000;0.000;2023-12-07T02:07:41;1.88;;;1.40;;
66707;SDS011;53622;0.000;0.000;2023-12-07T02:10:10;1.52;;;1.42;;
66707;SDS011;53622;0.000;0.000;2023-12-07T02:12:40;1.40;;;1.30;;
66707;SDS011;53622;0.000;0.000;2023-12-07T02:15:09;2.10;;;1.38;;
66707;SDS011;53622;0.000;0.000;2023-12-07T02:17:41;1.67;;;1.58;;
66707;SDS011;53622;0.000;0.000;2023-12-07T02:20:17;1.35;;;1.25;;
66707;SDS011;53622;0.000;0.000;2023-12-07T02:22:55;1.50;;;1.30;;
66707;SDS011;53622;0.000;0.000;2023-12-07T02:25:29;2.05;;;1.50;;
66707;SDS011;53622;0.000;0.000;2023-12-07T02:28:04;1.55;;;1.42;;
66707;SDS011;53622;0.000;0.000;2023-12-07T02:30:32;1.60;;;1.50;;
66707;SDS011;53622;0.000;0.000;2023-12-07T02:33:01;1.77;;;1.40;;
66707;SDS011;53622;0.000;0.000;2023-12-07T02:35:32;1.70;;;1.60;;
66707;SDS011;53622;0.000;0.000;2023-12-07T02:38:02;1.50;;;1.27;;
66707;SDS011;53622;0.000;0.000;2023-12-07T02:40:33;2.13;;;1.50;;
66707;SDS011;53622;0.000;0.000;2023-12-07T02:43:03;1.92;;;1.65;;
66707;SDS011;53622;0.000;0.000;2023-12-07T02:45:33;1.27;;;1.17;;
66707;SDS011;53622;0.000;0.000;2023-12-07T02:48:02;1.27;;;1.17;;
66707;SDS011;53622;0.000;0.000;2023-12-07T02:50:31;1.35;;;1.25;;
66707;SDS011;53622;0.000;0.000;2023-12-07T02:53:00;2.22;;;1.60;;
66707;SDS011;53622;0.000;0.000;2023-12-07T02:55:28;1.45;;;1.35;;
66707;SDS011;53622;0.000;0.000;2023-12-07T02:57:57;1.30;;;1.20;;
66707;SDS011;53622;0.000;0.000;2023-12-07T03:00:27;1.55;;;1.42;;
66707;SDS011;53622;0.000;0.000;2023-12-07T03:02:56;2.40;;;1.55;;
66707;SDS011;53622;0.000;0.000;2023-12-07T03:05:24;1.63;;;1.45;;
66707;SDS011;53622;0.000;0.000;2023-12-07T03:07:53;1.67;;;1.50;;
66707;SDS011;53622;0.000;0.000;2023-12-07T03:10:22;1.50;;;1.30;;
66707;SDS011;53622;0.000;0.000;2023-12-07T03:12:51;1.35;;;1.25;;
66707;SDS011;53622;0.000;0.000;2023-12-07T03:15:19;1.70;;;1.60;;
66707;SDS011;53622;0.000;0.000;2023-12-07T03:17:50;1.55;;;1.35;;
66707;SDS011;53622;0.000;0.000;2023-12-07T03:20:18;1.30;;;1.20;;
66707;SDS011;53622;0.000;0.000;2023-12-07T03:22:48;1.65;;;1.33;;
66707;SDS011;53622;0.000;0.000;2023-12-07T03:25:16;1.60;;;1.50;;
66707;SDS011;53622;0.000;0.000;2023-12-07T03:27:45;1.20;;;1.10;;
66707;SDS011;53622;0.000;0.000;2023-12-07T03:30:14;1.65;;;1.50;;
66707;SDS011;53622;0.000;0.000;2023-12-07T03:32:43;1.50;;;1.30;;
66707;SDS011;53622;0.000;0.000;2023-12-07T03:35:13;1.27;;;1.15;;
66707;SDS011;53622;0.000;0.000;2023-12-07T03:37:42;1.60;;;1.50;;
66707;SDS011;53622;0.000;0.000;2023-12-07T03:40:10;1.55;;;1.20;;
66707;SDS011;53622;0.000;0.000;2023-12-07T03:42:39;2.10;;;1.77;;
66707;SDS011;53622;0.000;0.000;2023-12-07T03:45:22;1.50;;;1.40;;
66707;SDS011;53622;0.000;0.000;2023-12-07T03:47:51;1.40;;;1.30;;
66707;SDS011;53622;0.000;0.000;2023-12-07T03:50:21;1.58;;;1.40;;
66707;SDS011;53622;0.000;0.000;2023-12-07T03:52:50;2.42;;;1.65;;
66707;SDS011;53622;0.000;0.000;2023-12-07T03:55:19;1.02;;;1.00;;
66707;SDS011;53622;0.000;0.000;2023-12-07T03:57:47;1.25;;;1.15;;
66707;SDS011;53622;0.000;0.000;2023-12-07T04:00:16;1.67;;;1.52;;
66707;SDS011;53622;0.000;0.000;2023-12-07T04:02:45;1.23;;;1.13;;
66707;SDS011;53622;0.000;0.000;2023-12-07T04:05:14;1.65;;;1.25;;
66707;SDS011;53622;0.000;0.000;2023-12-07T04:07:44;1.48;;;1.38;;
66707;SDS011;53622;0.000;0.000;2023-12-07T04:10:12;1.70;;;1.60;;
66707;SDS011;53622;0.000;0.000;2023-12-07T04:12:41;1.40;;;1.30;;
66707;SDS011;53622;0.000;0.000;2023-12-07T04:15:10;1.27;;;1.17;;
66707;SDS011;53622;0.000;0.000;2023-12-07T04:17:42;1.35;;;1.25;;
66707;SDS011;53622;0.000;0.000;2023-12-07T04:20:11;1.85;;;1.60;;
66707;SDS011;53622;0.000;0.000;2023-12-07T04:22:40;1.20;;;1.10;;
66707;SDS011;53622;0.000;0.000;2023-12-07T04:25:12;1.35;;;1.23;;
66707;SDS011;53622;0.000;0.000;2023-12-07T04:27:40;1.73;;;1.35;;
66707;SDS011;53622;0.000;0.000;2023-12-07T04:30:09;1.33;;;1.23;;
66707;SDS011;53622;0.000;0.000;2023-12-07T04:32:39;1.90;;;1.60;;
66707;SDS011;53622;0.000;0.000;2023-12-07T04:35:08;1.90;;;1.70;;
66707;SDS011;53622;0.000;0.000;2023-12-07T04:37:37;1.80;;;1.15;;
66707;SDS011;53622;0.000;0.000;2023-12-07T04:40:06;1.63;;;1.52;;
66707;SDS011;53622;0.000;0.000;2023-12-07T04:42:38;1.40;;;1.30;;
66707;SDS011;53622;0.000;0.000;2023-12-07T04:45:08;1.70;;;1.38;;
66707;SDS011;53622;0.000;0.000;2023-12-07T04:47:37;1.50;;;1.20;;
66707;SDS011;53622;0.000;0.000;2023-12-07T04:50:06;1.58;;;1.48;;
66707;SDS011;53622;0.000;0.000;2023-12-07T04:52:36;1.80;;;1.42;;
66707;SDS011;53622;0.000;0.000;2023-12-07T04:55:05;2.10;;;1.30;;
66707;SDS011;53622;0.000;0.000;2023-12-07T04:57:36;1.60;;;1.50;;
66707;SDS011;53622;0.000;0.000;2023-12-07T05:00:06;1.50;;;1.40;;
66707;SDS011;53622;0.000;0.000;2023-12-07T05:02:36;1.42;;;1.33;;
66707;SDS011;53622;0.000;0.000;2023-12-07T05:05:05;1.35;;;1.23;;
66707;SDS011;53622;0.000;0.000;2023-12-07T05:07:35;1.85;;;1.42;;
66707;SDS011;53622;0.000;0.000;2023-12-07T05:10:04;1.52;;;1.30;;
66707;SDS011;53622;0.000;0.000;2023-12-07T05:12:34;1.40;;;1.30;;
66707;SDS011;53622;0.000;0.000;2023-12-07T05:15:03;1.38;;;1.25;;
66707;SDS011;53622;0.000;0.000;2023-12-07T05:17:34;1.65;;;1.40;;
66707;SDS011;53622;0.000;0.000;2023-12-07T05:20:03;1.58;;;1.30;;
66707;SDS011;53622;0.000;0.000;2023-12-07T05:22:34;1.83;;;1.38;;
66707;SDS011;53622;0.000;0.000;2023-12-07T05:25:03;1.38;;;1.27;;
66707;SDS011;53622;0.000;0.000;2023-12-07T05:27:32;1.23;;;1.10;;
66707;SDS011;53622;0.000;0.000;2023-12-07T05:30:01;1.65;;;1.20;;
66707;SDS011;53622;0.000;0.000;2023-12-07T05:32:30;2.75;;;1.20;;
66707;SDS011;53622;0.000;0.000;2023-12-07T05:35:00;1.50;;;1.38;;
66707;SDS011;53622;0.000;0.000;2023-12-07T05:37:29;1.40;;;1.30;;
66707;SDS011;53622;0.000;0.000;2023-12-07T05:39:58;2.72;;;1.27;;
66707;SDS011;53622;0.000;0.000;2023-12-07T05:42:27;1.80;;;1.35;;
66707;SDS011;53622;0.000;0.000;2023-12-07T05:44:55;3.08;;;1.48;;
66707;SDS011;53622;0.000;0.000;2023-12-07T05:47:25;2.38;;;1.92;;
66707;SDS011;53622;0.000;0.000;2023-12-07T05:49:54;5.80;;;1.88;;
66707;SDS011;53622;0.000;0.000;2023-12-07T05:52:26;2.50;;;1.45;;
66707;SDS011;53622;0.000;0.000;2023-12-07T05:54:55;4.70;;;1.80;;
66707;SDS011;53622;0.000;0.000;2023-12-07T05:57:24;2.70;;;1.45;;
66707;SDS011;53622;0.000;0.000;2023-12-07T05:59:53;4.95;;;1.98;;
66707;SDS011;53622;0.000;0.000;2023-12-07T06:02:21;6.70;;;2.03;;
66707;SDS011;53622;0.000;0.000;2023-12-07T06:04:51;3.30;;;1.75;;
66707;SDS011;53622;0.000;0.000;2023-12-07T06:07:19;5.57;;;2.03;;
66707;SDS011;53622;0.000;0.000;2023-12-07T06:09:49;3.40;;;2.00;;
66707;SDS011;53622;0.000;0.000;2023-12-07T06:12:18;3.35;;;1.85;;
66707;SDS011;53622;0.000;0.000;2023-12-07T06:14:49;2.55;;;1.80;;
66707;SDS011;53622;0.000;0.000;2023-12-07T06:17:17;2.80;;;1.77;;
66707;SDS011;53622;0.000;0.000;2023-12-07T06:19:48;4.22;;;1.80;;
66707;SDS011;53622;0.000;0.000;2023-12-07T06:22:16;3.00;;;1.85;;
66707;SDS011;53622;0.000;0.000;2023-12-07T06:24:45;1.83;;;1.48;;
66707;SDS011;53622;0.000;0.000;2023-12-07T06:27:15;2.65;;;1.70;;
66707;SDS011;53622;0.000;0.000;2023-12-07T06:29:45;1.88;;;1.50;;
66707;SDS011;53622;0.000;0.000;2023-12-07T06:32:14;2.40;;;1.20;;
66707;SDS011;53622;0.000;0.000;2023-12-07T06:34:43;2.40;;;1.80;;
66707;SDS011;53622;0.000;0.000;2023-12-07T06:37:12;2.75;;;1.65;;
66707;SDS011;53622;0.000;0.000;2023-12-07T06:39:41;5.85;;;1.30;;
66707;SDS011;53622;0.000;0.000;2023-12-07T06:42:10;2.10;;;1.75;;
66707;SDS011;53622;0.000;0.000;2023-12-07T06:44:40;1.85;;;1.25;;
66707;SDS011;53622;0.000;0.000;2023-12-07T06:47:08;2.38;;;1.60;;
66707;SDS011;53622;0.000;0.000;2023-12-07T06:49:37;2.63;;;1.90;;
66707;SDS011;53622;0.000;0.000;2023-12-07T06:52:18;3.03;;;2.00;;
66707;SDS011;53622;0.000;0.000;2023-12-07T06:54:47;3.00;;;2.28;;
66707;SDS011;53622;0.000;0.000;2023-12-07T06:57:16;3.03;;;2.33;;
66707;SDS011;53622;0.000;0.000;2023-12-07T06:59:46;2.63;;;1.70;;
66707;SDS011;53622;0.000;0.000;2023-12-07T07:02:15;2.67;;;2.08;;
66707;SDS011;53622;0.000;0.000;2023-12-07T07:04:44;3.75;;;2.80;;
66707;SDS011;53622;0.000;0.000;2023-12-07T07:07:15;4.63;;;2.40;;
66707;SDS011;53622;0.000;0.000;2023-12-07T07:09:44;3.30;;;2.38;;
66707;SDS011;53622;0.000;0.000;2023-12-07T07:12:13;3.40;;;2.20;;
66707;SDS011;53622;0.000;0.000;2023-12-07T07:14:42;2.20;;;2.00;;
66707;SDS011;53622;0.000;0.000;2023-12-07T07:17:12;2.22;;;1.90;;
66707;SDS011;53622;0.000;0.000;2023-12-07T07:19:41;3.88;;;2.05;;
66707;SDS011;53622;0.000;0.000;2023-12-07T07:22:09;2.22;;;1.95;;
66707;SDS011;53622;0.000;0.000;2023-12-07T07:24:38;2.92;;;2.00;;
66707;SDS011;53622;0.000;0.000;2023-12-07T07:27:07;3.08;;;2.30;;
66707;SDS011;53622;0.000;0.000;2023-12-07T07:29:36;2.97;;;2.15;;
66707;SDS011;53622;0.000;0.000;2023-12-07T07:32:05;2.00;;;1.80;;
66707;SDS011;53622;0.000;0.000;2023-12-07T07:34:35;5.47;;;1.98;;
66707;SDS011;53622;0.000;0.000;2023-12-07T07:37:05;2.50;;;2.20;;
66707;SDS011;53622;0.000;0.000;2023-12-07T07:39:35;2.92;;;1.98;;
66707;SDS011;53622;0.000;0.000;2023-12-07T07:42:04;2.78;;;2.10;;
66707;SDS011;53622;0.000;0.000;2023-12-07T07:44:32;2.47;;;2.08;;
66707;SDS011;53622;0.000;0.000;2023-12-07T07:47:01;2.97;;;2.10;;
66707;SDS011;53622;0.000;0.000;2023-12-07T07:49:30;2.20;;;1.92;;
66707;SDS011;53622;0.000;0.000;2023-12-07T07:52:00;2.75;;;2.00;;
66707;SDS011;53622;0.000;0.000;2023-12-07T07:54:29;2.13;;;1.90;;
66707;SDS011;53622;0.000;0.000;2023-12-07T07:56:57;2.28;;;1.75;;
66707;SDS011;53622;0.000;0.000;2023-12-07T07:59:26;2.65;;;2.05;;
66707;SDS011;53622;0.000;0.000;2023-12-07T08:01:55;2.90;;;1.95;;
66707;SDS011;53622;0.000;0.000;2023-12-07T08:04:24;2.10;;;1.90;;
66707;SDS011;53622;0.000;0.000;2023-12-07T08:06:53;3.28;;;1.90;;
66707;SDS011;53622;0.000;0.000;2023-12-07T08:09:23;3.33;;;2.00;;
66707;SDS011;53622;0.000;0.000;2023-12-07T08:11:51;2.13;;;1.80;;
66707;SDS011;53622;0.000;0.000;2023-12-07T08:14:20;2.47;;;1.98;;
66707;SDS011;53622;0.000;0.000;2023-12-07T08:16:49;2.30;;;2.10;;
66707;SDS011;53622;0.000;0.000;2023-12-07T08:19:17;1.90;;;1.80;;
66707;SDS011;53622;0.000;0.000;2023-12-07T08:21:46;2.05;;;1.80;;
66707;SDS011;53622;0.000;0.000;2023-12-07T08:24:16;2.10;;;1.90;;
66707;SDS011;53622;0.000;0.000;2023-12-07T08:26:46;2.90;;;1.73;;
66707;SDS011;53622;0.000;0.000;2023-12-07T08:29:14;2.67;;;2.35;;
66707;SDS011;53622;0.000;0.000;2023-12-07T08:31:43;2.72;;;2.20;;
66707;SDS011;53622;0.000;0.000;2023-12-07T08:34:13;3.45;;;2.42;;
66707;SDS011;53622;0.000;0.000;2023-12-07T08:36:42;2.58;;;1.98;;
66707;SDS011;53622;0.000;0.000;2023-12-07T08:39:11;2.33;;;2.00;;
66707;SDS011;53622;0.000;0.000;2023-12-07T08:41:40;2.47;;;2.28;;
66707;SDS011;53622;0.000;0.000;2023-12-07T08:44:10;2.65;;;2.10;;
66707;SDS011;53622;0.000;0.000;2023-12-07T08:46:39;2.40;;;2.20;;
66707;SDS011;53622;0.000;0.000;2023-12-07T08:49:10;2.60;;;2.30;;
66707;SDS011;53622;0.000;0.000;2023-12-07T08:51:39;2.10;;;1.90;;
66707;SDS011;53622;0.000;0.000;2023-12-07T08:54:28;2.17;;;1.98;;
66707;SDS011;53622;0.000;0.000;2023-12-07T08:56:57;2.28;;;2.00;;
66707;SDS011;53622;0.000;0.000;2023-12-07T08:59:27;2.60;;;2.38;;
66707;SDS011;53622;0.000;0.000;2023-12-07T09:01:57;2.63;;;2.38;;
66707;SDS011;53622;0.000;0.000;2023-12-07T09:04:26;3.50;;;2.03;;
66707;SDS011;53622;0.000;0.000;2023-12-07T09:06:55;4.00;;;2.55;;
66707;SDS011;53622;0.000;0.000;2023-12-07T09:09:24;2.40;;;2.20;;
66707;SDS011;53622;0.000;0.000;2023-12-07T09:11:54;2.95;;;2.47;;
66707;SDS011;53622;0.000;0.000;2023-12-07T09:14:23;2.22;;;2.03;;
66707;SDS011;53622;0.000;0.000;2023-12-07T09:16:54;2.55;;;2.20;;
66707;SDS011;53622;0.000;0.000;2023-12-07T09:19:23;2.33;;;2.13;;
66707;SDS011;53622;0.000;0.000;2023-12-07T09:21:52;2.88;;;2.38;;
66707;SDS011;53622;0.000;0.000;2023-12-07T09:24:21;2.85;;;2.47;;
66707;SDS011;53622;0.000;0.000;2023-12-07T09:26:49;2.63;;;2.22;;
66707;SDS011;53622;0.000;0.000;2023-12-07T09:29:19;2.60;;;2.40;;
66707;SDS011;53622;0.000;0.000;2023-12-07T09:31:47;2.95;;;2.30;;
66707;SDS011;53622;0.000;0.000;2023-12-07T09:34:18;2.45;;;2.25;;
66707;SDS011;53622;0.000;0.000;2023-12-07T09:36:47;2.58;;;2.20;;
66707;SDS011;53622;0.000;0.000;2023-12-07T09:39:16;3.92;;;2.30;;
66707;SDS011;53622;0.000;0.000;2023-12-07T09:41:44;2.10;;;1.90;;
66707;SDS011;53622;0.000;0.000;2023-12-07T09:44:14;2.35;;;2.15;;
66707;SDS011;53622;0.000;0.000;2023-12-07T09:46:43;3.13;;;2.05;;
66707;SDS011;53622;0.000;0.000;2023-12-07T09:49:12;2.13;;;1.92;;
66707;SDS011;53622;0.000;0.000;2023-12-07T09:51:42;2.30;;;2.10;;
66707;SDS011;53622;0.000;0.000;2023-12-07T09:54:12;2.88;;;2.28;;
66707;SDS011;53622;0.000;0.000;2023-12-07T09:56:41;2.28;;;2.05;;
66707;SDS011;53622;0.000;0.000;2023-12-07T09:59:11;3.30;;;2.25;;
66707;SDS011;53622;0.000;0.000;2023-12-07T10:01:40;2.53;;;2.05;;
66707;SDS011;53622;0.000;0.000;2023-12-07T10:04:16;2.70;;;2.20;;
66707;SDS011;53622;0.000;0.000;2023-12-07T10:06:47;2.17;;;1.90;;
66707;SDS011;53622;0.000;0.000;2023-12-07T10:09:16;2.33;;;1.90;;
66707;SDS011;53622;0.000;0.000;2023-12-07T10:12:01;2.17;;;1.90;;
66707;SDS011;53622;0.000;0.000;2023-12-07T10:14:30;2.65;;;2.22;;
66707;SDS011;53622;0.000;0.000;2023-12-07T10:16:59;2.53;;;1.83;;
66707;SDS011;53622;0.000;0.000;2023-12-07T10:19:28;2.50;;;2.20;;
66707;SDS011;53622;0.000;0.000;2023-12-07T10:22:00;2.97;;;2.30;;
66707;SDS011;53622;0.000;0.000;2023-12-07T10:24:41;2.72;;;2.10;;
66707;SDS011;53622;0.000;0.000;2023-12-07T10:27:10;3.38;;;2.15;;
66707;SDS011;53622;0.000;0.000;2023-12-07T10:29:38;2.90;;;2.17;;
66707;SDS011;53622;0.000;0.000;2023-12-07T10:32:10;2.72;;;2.13;;
66707;SDS011;53622;0.000;0.000;2023-12-07T10:34:39;4.70;;;2.17;;
66707;SDS011;53622;0.000;0.000;2023-12-07T10:37:09;3.15;;;2.40;;
66707;SDS011;53622;0.000;0.000;2023-12-07T10:39:38;4.05;;;2.42;;
66707;SDS011;53622;0.000;0.000;2023-12-07T10:42:08;3.25;;;2.30;;
66707;SDS011;53622;0.000;0.000;2023-12-07T10:44:41;2.22;;;2.03;;
66707;SDS011;53622;0.000;0.000;2023-12-07T10:47:10;3.22;;;2.30;;
66707;SDS011;53622;0.000;0.000;2023-12-07T10:49:40;2.20;;;1.95;;
66707;SDS011;53622;0.000;0.000;2023-12-07T10:52:15;3.95;;;2.28;;
66707;SDS011;53622;0.000;0.000;2023-12-07T10:54:50;2.85;;;2.05;;
66707;SDS011;53622;0.000;0.000;2023-12-07T10:57:23;3.10;;;2.30;;
66707;SDS011;53622;0.000;0.000;2023-12-07T10:59:53;3.42;;;2.33;;
66707;SDS011;53622;0.000;0.000;2023-12-07T11:02:24;2.88;;;2.17;;
66707;SDS011;53622;0.000;0.000;2023-12-07T11:04:55;2.67;;;1.92;;
66707;SDS011;53622;0.000;0.000;2023-12-07T11:07:27;2.83;;;2.05;;
66707;SDS011;53622;0.000;0.000;2023-12-07T11:10:04;2.42;;;2.00;;
66707;SDS011;53622;0.000;0.000;2023-12-07T11:12:40;2.50;;;2.20;;
66707;SDS011;53622;0.000;0.000;2023-12-07T11:15:15;3.08;;;1.98;;
66707;SDS011;53622;0.000;0.000;2023-12-07T11:17:52;2.90;;;2.30;;
66707;SDS011;53622;0.000;0.000;2023-12-07T11:20:31;2.28;;;2.08;;
66707;SDS011;53622;0.000;0.000;2023-12-07T11:23:08;3.25;;;2.15;;
66707;SDS011;53622;0.000;0.000;2023-12-07T11:25:37;2.40;;;2.20;;
66707;SDS011;53622;0.000;0.000;2023-12-07T11:28:07;2.70;;;2.15;;
66707;SDS011;53622;0.000;0.000;2023-12-07T11:30:36;2.65;;;2.40;;
66707;SDS011;53622;0.000;0.000;2023-12-07T11:33:07;2.05;;;1.80;;
66707;SDS011;53622;0.000;0.000;2023-12-07T11:38:36;2.38;;;1.98;;
66707;SDS011;53622;0.000;0.000;2023-12-07T11:41:05;2.80;;;2.28;;
66707;SDS011;53622;0.000;0.000;2023-12-07T11:43:37;2.70;;;2.10;;
66707;SDS011;53622;0.000;0.000;2023-12-07T11:46:11;2.83;;;2.20;;
66707;SDS011;53622;0.000;0.000;2023-12-07T11:48:46;5.18;;;2.10;;
66707;SDS011;53622;0.000;0.000;2023-12-07T11:51:16;2.22;;;2.03;;
66707;SDS011;53622;0.000;0.000;2023-12-07T11:53:46;3.40;;;2.55;;
66707;SDS011;53622;0.000;0.000;2023-12-07T11:56:17;2.50;;;2.03;;
66707;SDS011;53622;0.000;0.000;2023-12-07T11:58:48;2.60;;;2.28;;
66707;SDS011;53622;0.000;0.000;2023-12-07T12:01:19;2.38;;;2.08;;
66707;SDS011;53622;0.000;0.000;2023-12-07T12:03:48;2.63;;;2.15;;
66707;SDS011;53622;0.000;0.000;2023-12-07T12:06:17;2.75;;;2.00;;
66707;SDS011;53622;0.000;0.000;2023-12-07T12:08:48;2.15;;;1.90;;
66707;SDS011;53622;0.000;0.000;2023-12-07T12:11:16;2.15;;;1.90;;
66707;SDS011;53622;0.000;0.000;2023-12-07T12:13:45;2.08;;;1.85;;
66707;SDS011;53622;0.000;0.000;2023-12-07T12:16:15;2.88;;;2.03;;
66707;SDS011;53622;0.000;0.000;2023-12-07T12:18:44;2.13;;;1.92;;
66707;SDS011;53622;0.000;0.000;2023-12-07T12:21:13;3.08;;;2.10;;
66707;SDS011;53622;0.000;0.000;2023-12-07T12:23:41;2.08;;;1.85;;
66707;SDS011;53622;0.000;0.000;2023-12-07T12:26:12;2.42;;;2.22;;
66707;SDS011;53622;0.000;0.000;2023-12-07T12:28:41;2.63;;;2.10;;
66707;SDS011;53622;0.000;0.000;2023-12-07T12:31:11;2.53;;;1.88;;
66707;SDS011;53622;0.000;0.000;2023-12-07T12:33:40;2.35;;;1.90;;
66707;SDS011;53622;0.000;0.000;2023-12-07T12:36:09;1.95;;;1.75;;
66707;SDS011;53622;0.000;0.000;2023-12-07T12:38:38;2.97;;;2.10;;
66707;SDS011;53622;0.000;0.000;2023-12-07T12:41:10;2.13;;;1.83;;
66707;SDS011;53622;0.000;0.000;2023-12-07T12:43:46;2.00;;;1.80;;
66707;SDS011;53622;0.000;0.000;2023-12-07T12:46:16;1.75;;;1.60;;
66707;SDS011;53622;0.000;0.000;2023-12-07T12:48:54;2.55;;;2.15;;
66707;SDS011;53622;0.000;0.000;2023-12-07T12:51:25;3.42;;;2.05;;
66707;SDS011;53622;0.000;0.000;2023-12-07T12:53:55;2.30;;;2.03;;
66707;SDS011;53622;0.000;0.000;2023-12-07T12:56:27;2.33;;;1.83;;
66707;SDS011;53622;0.000;0.000;2023-12-07T12:58:56;2.05;;;1.85;;
66707;SDS011;53622;0.000;0.000;2023-12-07T13:01:31;2.10;;;1.90;;
66707;SDS011;53622;0.000;0.000;2023-12-07T13:04:01;2.65;;;1.85;;
66707;SDS011;53622;0.000;0.000;2023-12-07T13:06:30;2.63;;;2.00;;
66707;SDS011;53622;0.000;0.000;2023-12-07T13:08:59;1.92;;;1.55;;
66707;SDS011;53622;0.000;0.000;2023-12-07T13:11:29;2.65;;;1.95;;
66707;SDS011;53622;0.000;0.000;2023-12-07T13:13:57;1.90;;;1.70;;
66707;SDS011;53622;0.000;0.000;2023-12-07T13:16:26;1.90;;;1.70;;
66707;SDS011;53622;0.000;0.000;2023-12-07T13:18:55;1.92;;;1.70;;
66707;SDS011;53622;0.000;0.000;2023-12-07T13:21:24;2.30;;;2.10;;
66707;SDS011;53622;0.000;0.000;2023-12-07T13:23:54;2.22;;;1.95;;
66707;SDS011;53622;0.000;0.000;2023-12-07T13:26:29;1.70;;;1.60;;
66707;SDS011;53622;0.000;0.000;2023-12-07T13:28:58;2.13;;;1.92;;
66707;SDS011;53622;0.000;0.000;2023-12-07T13:31:26;2.17;;;1.80;;
66707;SDS011;53622;0.000;0.000;2023-12-07T13:33:55;2.33;;;2.00;;
66707;SDS011;53622;0.000;0.000;2023-12-07T13:36:30;3.00;;;2.00;;
66707;SDS011;53622;0.000;0.000;2023-12-07T13:39:00;1.77;;;1.65;;
66707;SDS011;53622;0.000;0.000;2023-12-07T13:41:30;1.95;;;1.85;;
66707;SDS011;53622;0.000;0.000;2023-12-07T13:44:00;2.10;;;1.90;;
66707;SDS011;53622;0.000;0.000;2023-12-07T13:46:29;1.65;;;1.50;;
66707;SDS011;53622;0.000;0.000;2023-12-07T13:48:58;1.92;;;1.70;;
66707;SDS011;53622;0.000;0.000;2023-12-07T13:51:27;2.95;;;1.92;;
66707;SDS011;53622;0.000;0.000;2023-12-07T13:53:55;1.98;;;1.83;;
66707;SDS011;53622;0.000;0.000;2023-12-07T13:56:27;2.03;;;1.67;;
66707;SDS011;53622;0.000;0.000;2023-12-07T13:58:57;2.22;;;1.95;;
66707;SDS011;53622;0.000;0.000;2023-12-07T14:01:26;1.80;;;1.60;;
66707;SDS011;53622;0.000;0.000;2023-12-07T14:03:55;1.88;;;1.73;;
66707;SDS011;53622;0.000;0.000;2023-12-07T14:06:24;1.90;;;1.80;;
66707;SDS011;53622;0.000;0.000;2023-12-07T14:08:56;1.90;;;1.55;;
66707;SDS011;53622;0.000;0.000;2023-12-07T14:11:24;2.85;;;2.00;;
66707;SDS011;53622;0.000;0.000;2023-12-07T14:13:53;2.80;;;2.10;;
66707;SDS011;53622;0.000;0.000;2023-12-07T14:16:23;3.15;;;1.65;;
66707;SDS011;53622;0.000;0.000;2023-12-07T14:19:12;2.35;;;1.77;;
66707;SDS011;53622;0.000;0.000;2023-12-07T14:21:43;1.75;;;1.65;;
66707;SDS011;53622;0.000;0.000;2023-12-07T14:24:24;1.95;;;1.63;;
66707;SDS011;53622;0.000;0.000;2023-12-07T14:26:53;2.83;;;1.80;;
66707;SDS011;53622;0.000;0.000;2023-12-07T14:29:23;2.10;;;1.90;;
66707;SDS011;53622;0.000;0.000;2023-12-07T14:31:55;1.90;;;1.70;;
66707;SDS011;53622;0.000;0.000;2023-12-07T14:34:24;1.88;;;1.75;;
66707;SDS011;53622;0.000;0.000;2023-12-07T14:37:02;2.63;;;1.90;;
66707;SDS011;53622;0.000;0.000;2023-12-07T14:39:34;2.20;;;1.67;;
66707;SDS011;53622;0.000;0.000;2023-12-07T14:42:03;2.22;;;1.70;;
66707;SDS011;53622;0.000;0.000;2023-12-07T14:44:32;2.00;;;1.80;;
66707;SDS011;53622;0.000;0.000;2023-12-07T14:47:03;2.20;;;1.90;;
66707;SDS011;53622;0.000;0.000;2023-12-07T14:49:32;2.30;;;1.92;;
66707;SDS011;53622;0.000;0.000;2023-12-07T14:52:01;3.33;;;1.90;;
66707;SDS011;53622;0.000;0.000;2023-12-07T14:54:29;3.80;;;2.20;;
66707;SDS011;53622;0.000;0.000;2023-12-07T14:56:58;2.42;;;1.63;;
66707;SDS011;53622;0.000;0.000;2023-12-07T14:59:28;3.97;;;1.95;;
66707;SDS011;53622;0.000;0.000;2023-12-07T15:01:57;3.35;;;2.05;;
66707;SDS011;53622;0.000;0.000;2023-12-07T15:04:28;3.13;;;2.20;;
66707;SDS011;53622;0.000;0.000;2023-12-07T15:07:01;13.55;;;2.53;;
66707;SDS011;53622;0.000;0.000;2023-12-07T15:09:32;8.70;;;2.65;;
66707;SDS011;53622;0.000;0.000;2023-12-07T15:12:04;4.30;;;2.30;;
66707;SDS011;53622;0.000;0.000;2023-12-07T15:14:34;4.65;;;2.95;;
66707;SDS011;53622;0.000;0.000;2023-12-07T15:17:05;6.65;;;3.35;;
66707;SDS011;53622;0.000;0.000;2023-12-07T15:19:37;5.75;;;3.17;;